createdAt,value
2022-09-04T00:01:30.711Z,15.90
2022-09-04T00:04:06.737Z,15.93
2022-09-04T00:06:41.845Z,15.93
2022-09-04T00:09:19.985Z,16.07
2022-09-04T00:11:54.423Z,16.01
2022-09-04T00:14:34.802Z,16.02
2022-09-04T00:17:06.084Z,16.04
2022-09-04T00:19:39.117Z,16.05
2022-09-04T00:22:17.231Z,16.00
2022-09-04T00:24:57.930Z,15.88
2022-09-04T00:27:30.334Z,15.65
2022-09-04T00:30:07.955Z,15.70
2022-09-04T00:32:42.903Z,15.82
2022-09-04T00:35:16.380Z,15.67
2022-09-04T00:37:49.923Z,15.69
2022-09-04T00:40:26.927Z,15.59
2022-09-04T00:43:30.708Z,15.50
2022-09-04T00:46:09.473Z,15.48
2022-09-04T00:48:59.731Z,15.62
2022-09-04T00:51:37.319Z,15.59
2022-09-04T00:54:36.228Z,15.63
2022-09-04T00:57:35.397Z,15.60
2022-09-04T01:00:11.091Z,15.64
2022-09-04T01:02:58.769Z,15.72
2022-09-04T01:05:41.195Z,15.82
2022-09-04T01:08:20.527Z,15.86
2022-09-04T01:11:01.919Z,15.89
2022-09-04T01:13:38.193Z,15.84
2022-09-04T01:16:11.633Z,15.77
2022-09-04T01:18:48.279Z,15.77
2022-09-04T01:21:30.962Z,15.79
2022-09-04T01:24:20.836Z,15.56
2022-09-04T01:27:00.259Z,15.67
2022-09-04T01:29:41.087Z,15.74
2022-09-04T01:32:13.596Z,15.83
2022-09-04T01:34:51.881Z,15.92
2022-09-04T01:37:32.783Z,15.83
2022-09-04T01:40:16.869Z,15.82
2022-09-04T01:42:52.065Z,15.77
2022-09-04T01:45:38.258Z,15.74
2022-09-04T01:48:10.573Z,15.86
2022-09-04T01:50:40.785Z,15.91
2022-09-04T01:53:14.113Z,15.98
2022-09-04T01:55:52.146Z,15.95
2022-09-04T01:58:35.434Z,16.00
2022-09-04T02:01:15.543Z,16.01
2022-09-04T02:03:58.573Z,16.04
2022-09-04T02:06:34.419Z,16.09
2022-09-04T02:09:15.568Z,15.99
2022-09-04T02:11:56.993Z,16.05
2022-09-04T02:14:37.594Z,16.08
2022-09-04T02:17:12.626Z,15.96
2022-09-04T02:20:01.148Z,16.06
2022-09-04T02:22:37.838Z,15.85
2022-09-04T02:25:18.328Z,16.00
2022-09-04T02:27:53.753Z,16.06
2022-09-04T02:30:23.226Z,16.04
2022-09-04T02:33:03.302Z,16.00
2022-09-04T02:35:38.150Z,16.01
2022-09-04T02:38:15.323Z,16.02
2022-09-04T02:40:51.391Z,16.09
2022-09-04T02:43:35.698Z,16.13
2022-09-04T02:46:10.509Z,16.09
2022-09-04T02:48:52.279Z,16.10
2022-09-04T02:51:34.475Z,16.04
2022-09-04T02:54:08.597Z,16.03
2022-09-04T02:56:46.310Z,16.07
2022-09-04T02:59:29.716Z,16.00
2022-09-04T03:02:01.301Z,16.00
2022-09-04T03:04:39.363Z,15.96
2022-09-04T03:07:14.813Z,16.05
2022-09-04T03:09:47.403Z,15.99
2022-09-04T03:12:30.630Z,16.00
2022-09-04T03:15:08.542Z,15.92
2022-09-04T03:17:48.787Z,15.85
2022-09-04T03:20:22.381Z,15.79
2022-09-04T03:22:56.890Z,15.81
2022-09-04T03:25:49.590Z,15.83
2022-09-04T03:28:27.265Z,15.85
2022-09-04T03:30:58.447Z,15.78
2022-09-04T03:33:34.980Z,15.76
2022-09-04T03:36:10.536Z,15.70
2022-09-04T03:38:48.331Z,15.64
2022-09-04T03:41:30.743Z,15.57
2022-09-04T03:44:12.151Z,15.56
2022-09-04T03:46:56.861Z,15.46
2022-09-04T03:49:44.268Z,15.40
2022-09-04T03:52:21.451Z,15.37
2022-09-04T03:55:07.163Z,15.37
2022-09-04T03:58:13.398Z,15.35
2022-09-04T04:00:50.921Z,15.28
2022-09-04T04:03:35.777Z,15.25
2022-09-04T04:06:19.910Z,15.25
2022-09-04T04:09:11.962Z,15.24
2022-09-04T04:11:55.735Z,15.20
2022-09-04T04:14:38.446Z,15.13
2022-09-04T04:17:24.680Z,15.10
2022-09-04T04:20:08.749Z,15.07
2022-09-04T04:23:17.372Z,15.08
2022-09-04T04:26:00.026Z,15.09
2022-09-04T04:29:02.858Z,15.12
2022-09-04T04:31:44.732Z,15.09
2022-09-04T04:34:23.731Z,15.09
2022-09-04T04:36:57.796Z,15.17
2022-09-04T04:39:37.219Z,15.35
2022-09-04T04:42:21.124Z,15.45
2022-09-04T04:45:29.450Z,15.55
2022-09-04T04:48:30.426Z,15.59
2022-09-04T04:51:09.974Z,15.74
2022-09-04T04:53:47.722Z,15.78
2022-09-04T04:56:24.417Z,16.04
2022-09-04T04:59:03.091Z,16.22
2022-09-04T05:01:50.944Z,16.27
2022-09-04T05:04:27.581Z,16.44
2022-09-04T05:07:01.161Z,16.56
2022-09-04T05:09:38.858Z,16.62
2022-09-04T05:12:17.811Z,16.63
2022-09-04T05:14:52.038Z,16.83
2022-09-04T05:17:32.741Z,16.94
2022-09-04T05:20:21.677Z,16.79
2022-09-04T05:23:01.040Z,17.07
2022-09-04T05:25:40.184Z,17.06
2022-09-04T05:28:22.608Z,16.80
2022-09-04T05:30:57.304Z,16.92
2022-09-04T05:33:34.996Z,17.18
2022-09-04T05:36:11.214Z,17.31
2022-09-04T05:38:48.106Z,17.22
2022-09-04T05:41:30.220Z,17.27
2022-09-04T05:44:12.274Z,17.05
2022-09-04T05:46:52.355Z,16.58
2022-09-04T05:49:37.789Z,16.81
2022-09-04T05:52:20.220Z,16.68
2022-09-04T05:55:17.149Z,16.87
2022-09-04T05:57:58.561Z,17.14
2022-09-04T06:00:32.736Z,16.97
2022-09-04T06:03:30.801Z,16.83
2022-09-04T06:06:08.565Z,16.78
2022-09-04T06:09:03.318Z,17.04
2022-09-04T06:11:42.170Z,17.13
2022-09-04T06:14:30.491Z,17.57
2022-09-04T06:17:17.595Z,17.55
2022-09-04T06:20:08.894Z,17.43
2022-09-04T06:22:55.051Z,17.41
2022-09-04T06:26:00.414Z,17.52
2022-09-04T06:28:46.720Z,17.75
2022-09-04T06:31:40.759Z,17.60
2022-09-04T06:34:22.280Z,17.89
2022-09-04T06:37:08.371Z,17.95
2022-09-04T06:39:52.070Z,18.02
2022-09-04T06:42:32.802Z,18.03
2022-09-04T06:45:19.613Z,18.17
2022-09-04T06:48:01.531Z,18.09
2022-09-04T06:50:41.622Z,17.94
2022-09-04T06:53:21.443Z,17.74
2022-09-04T06:56:01.530Z,17.99
2022-09-04T06:58:50.681Z,17.86
2022-09-04T07:01:30.403Z,17.85
2022-09-04T07:04:11.063Z,18.38
2022-09-04T07:06:54.753Z,18.52
2022-09-04T07:09:29.718Z,18.88
2022-09-04T07:12:22.129Z,18.77
2022-09-04T07:15:31.491Z,18.93
2022-09-04T07:18:12.261Z,19.53
2022-09-04T07:20:50.713Z,19.86
2022-09-04T07:23:25.700Z,19.89
2022-09-04T07:26:03.946Z,19.86
2022-09-04T07:28:47.369Z,20.22
2022-09-04T07:31:20.890Z,20.37
2022-09-04T07:33:57.549Z,20.62
2022-09-04T07:36:33.028Z,20.54
2022-09-04T07:39:10.739Z,20.85
2022-09-04T07:41:45.823Z,20.80
2022-09-04T07:44:21.014Z,21.00
2022-09-04T07:46:57.771Z,21.18
2022-09-04T07:49:36.290Z,20.93
2022-09-04T07:52:12.107Z,20.37
2022-09-04T07:54:58.768Z,20.22
2022-09-04T07:58:04.006Z,19.71
2022-09-04T08:00:42.594Z,19.71
2022-09-04T08:03:53.673Z,20.03
2022-09-04T08:06:31.406Z,19.73
2022-09-04T08:09:22.379Z,20.06
2022-09-04T08:12:32.134Z,20.37
2022-09-04T08:15:15.489Z,20.83
2022-09-04T08:17:59.657Z,20.61
2022-09-04T08:20:40.126Z,20.82
2022-09-04T08:23:23.501Z,21.11
2022-09-04T08:25:59.029Z,20.95
2022-09-04T08:28:46.435Z,21.47
2022-09-04T08:31:24.479Z,20.97
2022-09-04T08:34:29.255Z,20.92
2022-09-04T08:37:05.816Z,21.06
2022-09-04T08:39:45.794Z,20.97
2022-09-04T08:42:48.131Z,20.71
2022-09-04T08:45:46.886Z,20.89
2022-09-04T08:48:54.624Z,20.35
2022-09-04T08:51:57.278Z,20.50
2022-09-04T08:55:16.562Z,20.62
2022-09-04T08:58:17.556Z,20.31
2022-09-04T09:01:08.351Z,20.29
2022-09-04T09:04:06.101Z,20.40
2022-09-04T09:07:13.745Z,20.33
2022-09-04T09:10:15.221Z,20.64
2022-09-04T09:13:07.820Z,20.67
2022-09-04T09:16:10.094Z,20.89
2022-09-04T09:18:40.675Z,20.79
2022-09-04T09:21:11.611Z,20.99
2022-09-04T09:23:52.634Z,20.95
2022-09-04T09:26:29.545Z,20.76
2022-09-04T09:29:29.205Z,20.91
2022-09-04T09:32:31.496Z,20.69
2022-09-04T09:35:37.178Z,21.11
2022-09-04T09:38:35.760Z,21.46
2022-09-04T09:41:39.350Z,21.44
2022-09-04T09:44:50.148Z,21.57
2022-09-04T09:47:53.759Z,21.52
2022-09-04T09:50:46.698Z,21.32
2022-09-04T09:54:00.161Z,21.54
2022-09-04T09:57:03.121Z,21.43
2022-09-04T10:00:07.255Z,21.69
2022-09-04T10:03:07.995Z,21.69
2022-09-04T10:06:13.022Z,21.39
2022-09-04T10:09:29.174Z,21.69
2022-09-04T10:12:35.277Z,21.49
2022-09-04T10:15:37.743Z,21.18
2022-09-04T10:18:45.865Z,21.23
2022-09-04T10:21:46.931Z,21.20
2022-09-04T10:24:50.230Z,21.52
2022-09-04T10:27:49.865Z,21.58
2022-09-04T10:30:21.619Z,21.29
2022-09-04T10:33:18.592Z,21.71
2022-09-04T10:36:12.203Z,21.59
2022-09-04T10:39:03.591Z,21.63
2022-09-04T10:41:49.225Z,21.70
2022-09-04T10:44:46.217Z,21.84
2022-09-04T10:47:28.139Z,21.76
2022-09-04T10:50:17.693Z,22.02
2022-09-04T10:53:15.838Z,21.97
2022-09-04T10:56:03.474Z,21.74
2022-09-04T10:58:56.823Z,21.64
2022-09-04T11:02:03.163Z,21.60
2022-09-04T11:05:07.136Z,21.53
2022-09-04T11:07:57.070Z,21.47
2022-09-04T11:10:39.677Z,21.77
2022-09-04T11:13:42.968Z,22.05
2022-09-04T11:16:40.242Z,22.11
2022-09-04T11:19:52.026Z,21.97
2022-09-04T11:22:56.445Z,22.06
2022-09-04T11:25:47.891Z,21.92
2022-09-04T11:28:36.194Z,22.31
2022-09-04T11:31:26.119Z,22.13
2022-09-04T11:34:40.560Z,22.25
2022-09-04T11:37:49.715Z,22.35
2022-09-04T11:40:47.386Z,21.90
2022-09-04T11:43:41.115Z,21.78
2022-09-04T11:46:32.229Z,21.78
2022-09-04T11:49:31.490Z,21.96
2022-09-04T11:52:09.458Z,22.29
2022-09-04T11:55:10.307Z,22.15
2022-09-04T11:57:54.511Z,21.98
2022-09-04T12:00:24.029Z,22.10
2022-09-04T12:03:18.681Z,22.42
2022-09-04T12:06:05.326Z,22.27
2022-09-04T12:09:08.736Z,21.83
2022-09-04T12:12:11.628Z,22.12
2022-09-04T12:14:56.368Z,22.05
2022-09-04T12:17:50.214Z,21.91
2022-09-04T12:20:45.434Z,22.02
2022-09-04T12:23:33.959Z,21.97
2022-09-04T12:26:23.134Z,22.09
2022-09-04T12:29:24.878Z,22.16
2022-09-04T12:32:39.610Z,22.35
2022-09-04T12:35:21.381Z,22.27
2022-09-04T12:38:33.903Z,21.59
2022-09-04T12:41:10.647Z,21.79
2022-09-04T12:43:53.737Z,21.90
2022-09-04T12:46:41.777Z,21.85
2022-09-04T12:49:31.054Z,21.85
2022-09-04T12:52:19.263Z,22.20
2022-09-04T12:55:01.487Z,22.62
2022-09-04T12:57:40.954Z,22.57
2022-09-04T13:00:10.952Z,22.75
2022-09-04T13:02:50.339Z,22.23
2022-09-04T13:05:53.062Z,22.26
2022-09-04T13:08:37.281Z,22.43
2022-09-04T13:11:18.865Z,22.47
2022-09-04T13:13:55.688Z,22.32
2022-09-04T13:16:29.679Z,22.13
2022-09-04T13:19:08.951Z,22.09
2022-09-04T13:21:57.686Z,22.11
2022-09-04T13:24:44.580Z,22.13
2022-09-04T13:27:34.308Z,22.13
2022-09-04T13:30:08.013Z,22.17
2022-09-04T13:33:02.390Z,22.41
2022-09-04T13:35:44.897Z,22.09
2022-09-04T13:38:37.353Z,21.98
2022-09-04T13:41:25.042Z,22.00
2022-09-04T13:44:31.835Z,21.73
2022-09-04T13:47:08.203Z,21.92
2022-09-04T13:49:41.477Z,21.98
2022-09-04T13:52:16.540Z,22.04
2022-09-04T13:54:48.487Z,21.80
2022-09-04T13:57:21.145Z,21.79
2022-09-04T13:59:50.893Z,21.94
2022-09-04T14:02:25.514Z,21.98
2022-09-04T14:04:57.430Z,22.01
2022-09-04T14:07:29.462Z,21.93
2022-09-04T14:10:05.078Z,21.93
2022-09-04T14:12:54.101Z,21.81
2022-09-04T14:15:46.985Z,21.85
2022-09-04T14:18:36.537Z,21.89
2022-09-04T14:21:20.263Z,21.86
2022-09-04T14:23:55.514Z,22.00
2022-09-04T14:26:35.865Z,22.10
2022-09-04T14:29:15.741Z,22.10
2022-09-04T14:31:56.579Z,22.05
2022-09-04T14:34:38.888Z,22.20
2022-09-04T14:37:19.915Z,22.20
2022-09-04T14:39:50.297Z,22.17
2022-09-04T14:42:42.684Z,22.10
2022-09-04T14:45:30.119Z,21.89
2022-09-04T14:48:03.731Z,22.05
2022-09-04T14:50:34.249Z,21.89
2022-09-04T14:53:05.807Z,21.93
2022-09-04T14:55:35.991Z,21.99
2022-09-04T14:58:13.754Z,22.01
2022-09-04T15:00:59.624Z,22.08
2022-09-04T15:03:33.050Z,22.03
2022-09-04T15:06:09.070Z,22.00
2022-09-04T15:08:42.281Z,21.87
2022-09-04T15:11:13.305Z,21.76
2022-09-04T15:13:53.766Z,21.83
2022-09-04T15:16:43.214Z,21.78
2022-09-04T15:19:26.549Z,21.88
2022-09-04T15:22:01.298Z,21.78
2022-09-04T15:24:35.903Z,21.72
2022-09-04T15:27:13.699Z,21.72
2022-09-04T15:30:00.365Z,21.66
2022-09-04T15:32:31.949Z,21.60
2022-09-04T15:35:18.289Z,21.57
2022-09-04T15:37:49.547Z,21.54
2022-09-04T15:40:29.106Z,21.48
2022-09-04T15:43:05.338Z,21.34
2022-09-04T15:45:43.180Z,21.54
2022-09-04T15:48:23.674Z,21.48
2022-09-04T15:50:59.639Z,21.30
2022-09-04T15:53:31.289Z,21.30
2022-09-04T15:56:10.454Z,21.08
2022-09-04T15:58:49.357Z,20.94
2022-09-04T16:01:26.108Z,21.04
2022-09-04T16:04:05.406Z,20.85
2022-09-04T16:06:43.290Z,21.04
2022-09-04T16:09:21.670Z,21.03
2022-09-04T16:11:59.831Z,20.90
2022-09-04T16:14:32.213Z,20.84
2022-09-04T16:17:07.383Z,20.80
2022-09-04T16:19:41.833Z,20.90
2022-09-04T16:22:23.336Z,20.78
2022-09-04T16:24:56.229Z,20.75
2022-09-04T16:27:27.136Z,20.81
2022-09-04T16:29:59.438Z,20.81
2022-09-04T16:32:32.258Z,20.70
2022-09-04T16:35:04.958Z,20.69
2022-09-04T16:37:40.127Z,20.66
2022-09-04T16:40:24.269Z,20.62
2022-09-04T16:43:00.113Z,20.57
2022-09-04T16:45:32.405Z,20.42
2022-09-04T16:48:25.100Z,20.41
2022-09-04T16:51:23.519Z,20.40
2022-09-04T16:53:58.991Z,20.32
2022-09-04T16:56:36.911Z,20.28
2022-09-04T16:59:17.535Z,20.26
2022-09-04T17:01:50.564Z,20.21
2022-09-04T17:04:39.804Z,20.06
2022-09-04T17:07:16.842Z,20.06
2022-09-04T17:09:55.960Z,20.05
2022-09-04T17:12:33.938Z,20.01
2022-09-04T17:15:12.862Z,19.90
2022-09-04T17:17:43.155Z,19.89
2022-09-04T17:20:21.955Z,19.81
2022-09-04T17:28:59.807Z,19.77
2022-09-04T17:29:07.925Z,19.82
2022-09-04T17:29:19.056Z,19.68
2022-09-04T17:31:45.885Z,19.67
2022-09-04T17:40:33.905Z,19.68
2022-09-04T17:40:39.450Z,19.71
2022-09-04T17:40:55.964Z,19.61
2022-09-04T17:43:23.381Z,19.62
2022-09-04T17:46:05.669Z,19.52
2022-09-04T17:48:40.689Z,19.58
2022-09-04T17:51:09.699Z,19.62
2022-09-04T17:53:46.985Z,19.62
2022-09-04T17:56:22.685Z,19.56
2022-09-04T17:58:56.903Z,19.56
2022-09-04T18:01:28.640Z,19.59
2022-09-04T18:04:26.343Z,19.54
2022-09-04T18:07:29.942Z,19.55
2022-09-04T18:10:04.094Z,19.48
2022-09-04T18:12:38.930Z,19.44
2022-09-04T18:15:33.737Z,19.36
2022-09-04T18:18:13.247Z,19.16
2022-09-04T18:20:51.572Z,19.18
2022-09-04T18:23:51.398Z,19.02
2022-09-04T18:26:40.137Z,18.97
2022-09-04T18:33:28.387Z,19.07
2022-09-04T18:37:09.010Z,19.08
2022-09-04T18:37:21.502Z,19.04
2022-09-04T18:38:19.756Z,19.07
2022-09-04T18:43:00.635Z,19.06
2022-09-04T18:50:40.540Z,19.06
2022-09-04T18:50:44.116Z,19.10
2022-09-04T18:50:48.965Z,19.14
2022-09-04T18:52:19.557Z,18.81
2022-09-04T18:54:51.206Z,18.96
2022-09-04T18:57:28.382Z,19.04
2022-09-04T19:00:08.463Z,19.02
2022-09-04T19:02:52.882Z,19.02
2022-09-04T19:05:24.619Z,19.04
2022-09-04T19:07:57.971Z,19.12
2022-09-04T19:10:29.306Z,19.12
2022-09-04T19:13:02.824Z,18.96
2022-09-04T19:15:43.890Z,18.94
2022-09-04T19:18:24.670Z,18.54
2022-09-04T19:21:05.146Z,18.71
2022-09-04T19:23:41.367Z,18.77
2022-09-04T19:26:19.378Z,18.56
2022-09-04T19:28:52.345Z,18.50
2022-09-04T19:31:32.200Z,18.64
2022-09-04T19:34:10.331Z,18.69
2022-09-04T19:36:44.918Z,18.38
2022-09-04T19:44:25.565Z,18.44
2022-09-04T19:46:03.054Z,18.50
2022-09-04T19:46:17.179Z,18.34
2022-09-04T19:48:25.376Z,18.26
2022-09-04T19:53:33.087Z,18.29
2022-09-04T19:53:57.595Z,18.23
2022-09-04T19:56:31.666Z,18.27
2022-09-04T19:59:06.717Z,18.26
2022-09-04T20:01:46.475Z,18.35
2022-09-04T20:04:26.271Z,18.35
2022-09-04T20:06:59.624Z,18.37
2022-09-04T20:09:34.089Z,18.32
2022-09-04T20:12:11.096Z,18.38
2022-09-04T20:14:45.363Z,18.28
2022-09-04T20:17:29.948Z,18.31
2022-09-04T20:20:03.605Z,18.32
2022-09-04T20:22:36.267Z,18.26
2022-09-04T20:25:36.751Z,18.10
2022-09-04T20:28:17.334Z,18.04
2022-09-04T20:31:00.952Z,18.01
2022-09-04T20:33:31.480Z,18.03
2022-09-04T20:36:05.995Z,18.05
2022-09-04T20:38:45.814Z,17.90
2022-09-04T20:41:21.730Z,17.93
2022-09-04T20:44:00.281Z,17.93
2022-09-04T20:51:51.199Z,17.75
2022-09-04T20:52:55.656Z,17.75
2022-09-04T20:53:08.703Z,17.48
2022-09-04T20:55:46.814Z,17.70
2022-09-04T21:03:11.045Z,17.62
2022-09-04T21:03:19.367Z,17.29
2022-09-04T21:04:42.514Z,17.26
2022-09-04T21:07:23.204Z,17.43
2022-09-04T21:10:00.770Z,17.47
2022-09-04T21:12:37.211Z,17.45
2022-09-04T21:15:14.325Z,17.38
2022-09-04T21:18:03.685Z,17.38
2022-09-04T21:21:00.108Z,17.44
2022-09-04T21:24:03.448Z,17.40
2022-09-04T21:27:01.334Z,17.36
2022-09-04T21:29:53.131Z,17.22
2022-09-04T21:32:41.660Z,17.19
2022-09-04T21:35:17.537Z,17.12
2022-09-04T21:37:52.161Z,17.11
2022-09-04T21:40:52.957Z,17.03
2022-09-04T21:44:00.320Z,16.98
2022-09-04T21:46:46.766Z,16.92
2022-09-04T21:49:31.229Z,16.87
2022-09-04T21:52:26.339Z,16.85
2022-09-04T21:57:08.937Z,16.77
2022-09-04T22:02:30.373Z,16.62
2022-09-04T22:02:46.085Z,16.61
2022-09-04T22:04:42.777Z,16.62
2022-09-04T22:08:56.101Z,16.57
2022-09-04T22:13:35.445Z,16.52
2022-09-04T22:13:48.380Z,16.46
2022-09-04T22:16:29.525Z,16.37
2022-09-04T22:19:38.285Z,16.29
2022-09-04T22:22:36.383Z,16.09
2022-09-04T22:25:20.642Z,16.20
2022-09-04T22:28:07.842Z,16.23
2022-09-04T22:30:50.588Z,16.25
2022-09-04T22:34:15.779Z,16.26
2022-09-04T22:37:02.499Z,16.18
2022-09-04T22:39:58.705Z,16.09
2022-09-04T22:42:45.904Z,16.16
2022-09-04T22:45:45.879Z,16.09
2022-09-04T22:48:30.621Z,16.17
2022-09-04T22:51:14.996Z,16.25
2022-09-04T22:54:02.855Z,16.26
2022-09-04T22:56:49.107Z,16.22
2022-09-04T22:59:40.026Z,16.26
2022-09-04T23:03:06.730Z,16.26
2022-09-04T23:06:24.837Z,16.24
2022-09-04T23:13:48.667Z,16.20
2022-09-04T23:13:59.759Z,16.15
2022-09-04T23:15:37.218Z,16.08
2022-09-04T23:20:50.200Z,16.05
2022-09-04T23:26:41.491Z,15.95
2022-09-04T23:26:43.385Z,15.89
2022-09-04T23:27:32.436Z,15.88
2022-09-04T23:30:23.097Z,15.90
2022-09-04T23:33:33.241Z,15.70
2022-09-04T23:36:33.506Z,15.83
2022-09-04T23:39:49.014Z,15.53
2022-09-04T23:42:40.182Z,15.59
2022-09-04T23:45:22.860Z,15.62
2022-09-04T23:48:19.257Z,15.55
2022-09-04T23:50:55.110Z,15.47
2022-09-04T23:53:36.261Z,15.50
2022-09-04T23:56:15.931Z,15.51
2022-09-04T23:59:26.454Z,15.47
